Time;durP1;ratioP1;P1;durP2;ratioP2;P2;SDS_P1;SDS_P2;PMS_P1;PMS_P2;Temp;Humidity;BMP_temperature;BMP_pressure;BME280_temperature;BME280_humidity;BME280_pressure;Samples;Min_cycle;Max_cycle;Signal;HPM_P1;HPM_P2
2021/08/26 00:01:17;;;;;;;9.73;8.30;;;18.40;83.00;;;;;;5059111;28;20480;-72
2021/08/26 00:06:28;;;;;;;11.53;9.50;;;18.30;83.20;;;;;;5059879;28;20389;-72
2021/08/26 00:08:55;;;;;;;10.00;8.90;;;18.30;83.80;;;;;;5059459;28;20441;-71
2021/08/26 00:11:25;;;;;;;10.23;9.23;;;18.20;84.00;;;;;;5060526;28;20441;-72
2021/08/26 00:13:53;;;;;;;10.10;8.87;;;18.20;84.30;;;;;;5059691;28;20455;-72
2021/08/26 00:16:54;;;;;;;9.83;8.93;;;18.20;84.70;;;;;;5059465;28;20791;-72
2021/08/26 00:19:21;;;;;;;9.20;8.20;;;18.20;85.00;;;;;;5059343;28;20463;-72
2021/08/26 00:21:48;;;;;;;13.93;9.50;;;18.20;85.50;;;;;;5059425;28;20425;-72
2021/08/26 00:24:14;;;;;;;9.03;8.10;;;18.20;85.90;;;;;;5059661;28;20445;-72
2021/08/26 00:26:42;;;;;;;12.23;8.80;;;18.10;86.20;;;;;;5057554;28;20445;-72
2021/08/26 00:29:09;;;;;;;9.97;8.27;;;18.10;86.90;;;;;;5056134;28;20441;-72
2021/08/26 00:31:36;;;;;;;9.63;8.23;;;18.10;87.10;;;;;;5055865;28;20944;-72
2021/08/26 00:34:02;;;;;;;10.10;9.20;;;18.00;87.40;;;;;;5056050;28;20453;-72
2021/08/26 00:36:29;;;;;;;10.87;9.33;;;18.00;87.50;;;;;;5056866;28;20450;-72
2021/08/26 00:38:56;;;;;;;12.87;10.10;;;18.10;87.90;;;;;;5055965;28;20457;-72
2021/08/26 00:41:26;;;;;;;10.93;9.93;;;18.10;88.10;;;;;;5055981;28;20450;-72
2021/08/26 00:43:54;;;;;;;10.00;9.10;;;18.10;88.40;;;;;;5055960;28;20430;-72
2021/08/26 00:46:21;;;;;;;11.40;9.47;;;18.00;88.90;;;;;;5055770;28;20449;-72
2021/08/26 00:48:49;;;;;;;13.47;9.80;;;18.00;89.10;;;;;;5055843;28;20450;-72
2021/08/26 00:51:16;;;;;;;14.77;10.57;;;18.00;89.30;;;;;;5055702;28;20465;-72
2021/08/26 00:53:43;;;;;;;9.97;9.07;;;18.00;89.40;;;;;;5055751;28;20445;-72
2021/08/26 00:56:14;;;;;;;9.60;7.97;;;18.10;89.30;;;;;;5055627;28;20484;-73
2021/08/26 00:58:41;;;;;;;9.50;8.30;;;18.00;89.30;;;;;;5055689;28;20422;-72
2021/08/26 01:01:11;;;;;;;10.73;8.63;;;18.00;89.60;;;;;;5055320;28;20493;-72
2021/08/26 01:03:47;;;;;;;8.80;7.90;;;18.00;90.10;;;;;;5055596;28;20442;-73
2021/08/26 01:06:21;;;;;;;8.73;7.83;;;17.90;90.10;;;;;;5055249;28;20433;-72
2021/08/26 01:08:56;;;;;;;10.70;8.33;;;17.90;90.40;;;;;;5055503;28;20468;-72
2021/08/26 01:11:23;;;;;;;8.57;7.30;;;17.90;90.70;;;;;;5055176;28;20448;-72
2021/08/26 01:13:52;;;;;;;9.47;8.10;;;17.90;90.80;;;;;;5055405;28;20473;-72
2021/08/26 01:16:20;;;;;;;9.80;8.43;;;17.90;90.90;;;;;;5055246;28;20477;-72
2021/08/26 01:18:48;;;;;;;9.90;8.33;;;17.90;91.10;;;;;;5055310;28;20810;-72
2021/08/26 01:21:16;;;;;;;10.53;9.20;;;17.90;91.20;;;;;;5055187;28;20867;-72
2021/08/26 01:23:45;;;;;;;10.17;9.27;;;17.90;91.40;;;;;;5055210;28;20453;-72
2021/08/26 01:26:16;;;;;;;9.13;8.23;;;17.80;91.70;;;;;;5054826;28;20927;-72
2021/08/26 01:28:48;;;;;;;8.90;8.10;;;17.80;91.90;;;;;;5054836;28;20919;-72
2021/08/26 01:31:15;;;;;;;9.60;7.87;;;17.80;92.00;;;;;;5055040;28;20470;-72
2021/08/26 01:33:42;;;;;;;7.90;7.20;;;17.80;92.10;;;;;;5055020;28;20449;-72
2021/08/26 01:36:09;;;;;;;8.97;8.17;;;17.80;92.40;;;;;;5054932;28;20473;-72
2021/08/26 01:38:36;;;;;;;9.30;8.47;;;17.80;92.40;;;;;;5054761;28;20452;-72
2021/08/26 01:41:03;;;;;;;8.67;7.80;;;17.80;92.70;;;;;;5054799;28;20477;-72
2021/08/26 01:43:34;;;;;;;9.17;8.30;;;17.70;92.80;;;;;;5054844;28;20449;-72
2021/08/26 01:46:00;;;;;;;8.47;7.67;;;17.70;92.70;;;;;;5055102;28;20426;-72
2021/08/26 01:48:27;;;;;;;9.00;8.20;;;17.70;92.90;;;;;;5054718;28;20495;-72
2021/08/26 01:50:53;;;;;;;9.13;8.33;;;17.70;93.00;;;;;;5055532;28;20469;-72
2021/08/26 01:53:20;;;;;;;9.30;8.50;;;17.70;93.10;;;;;;5054655;28;20468;-72
2021/08/26 01:55:48;;;;;;;8.30;7.60;;;17.70;93.20;;;;;;5054482;28;20477;-72
2021/08/26 01:58:15;;;;;;;8.57;7.87;;;17.70;93.40;;;;;;5054547;28;20446;-72
2021/08/26 02:00:44;;;;;;;7.57;6.87;;;17.70;93.40;;;;;;5054172;28;20477;-72
2021/08/26 02:03:11;;;;;;;8.60;7.80;;;17.70;93.40;;;;;;5054440;28;20448;-72
2021/08/26 02:05:37;;;;;;;8.70;7.87;;;17.70;93.40;;;;;;5054653;28;20449;-72
2021/08/26 02:08:04;;;;;;;8.50;7.53;;;17.70;93.50;;;;;;5054351;28;20446;-72
2021/08/26 02:10:31;;;;;;;7.27;6.57;;;17.80;93.50;;;;;;5054464;28;20469;-72
2021/08/26 02:12:58;;;;;;;7.87;7.17;;;17.70;93.50;;;;;;5053993;28;20944;-72
2021/08/26 02:15:25;;;;;;;7.27;6.67;;;17.70;93.60;;;;;;5054146;28;20837;-72
2021/08/26 02:17:53;;;;;;;6.67;6.07;;;17.70;93.80;;;;;;5054160;28;20445;-72
2021/08/26 02:20:19;;;;;;;7.27;5.93;;;17.80;93.80;;;;;;5053772;28;20853;-71
2021/08/26 02:22:46;;;;;;;6.37;5.13;;;17.80;93.80;;;;;;5054092;28;20495;-71
2021/08/26 02:25:13;;;;;;;4.90;4.50;;;17.90;93.80;;;;;;5054047;28;20441;-71
2021/08/26 02:27:40;;;;;;;4.10;3.80;;;17.90;93.70;;;;;;5054022;28;20442;-72
2021/08/26 02:30:07;;;;;;;4.10;2.70;;;18.10;93.60;;;;;;5053901;28;20522;-71
2021/08/26 02:32:35;;;;;;;5.13;2.73;;;18.20;93.10;;;;;;5053925;28;20519;-71
2021/08/26 02:35:04;;;;;;;4.00;2.10;;;18.30;92.50;;;;;;5053800;28;20481;-72
2021/08/26 02:37:31;;;;;;;4.50;2.60;;;18.40;92.20;;;;;;5053531;28;20441;-72
2021/08/26 02:39:58;;;;;;;4.27;2.20;;;18.40;91.40;;;;;;5053728;28;20472;-72
2021/08/26 02:42:24;;;;;;;5.80;2.70;;;18.40;91.20;;;;;;5054003;28;20445;-72
2021/08/26 02:44:51;;;;;;;3.87;2.87;;;18.40;90.80;;;;;;5053710;28;20495;-72
2021/08/26 02:47:18;;;;;;;4.70;2.20;;;18.40;90.50;;;;;;5053680;28;20446;-72
2021/08/26 02:49:44;;;;;;;6.70;3.13;;;18.50;90.50;;;;;;5053111;28;20461;-72
2021/08/26 02:52:12;;;;;;;4.23;2.73;;;18.50;90.50;;;;;;5053629;28;20445;-72
2021/08/26 02:54:39;;;;;;;3.63;2.50;;;18.50;90.40;;;;;;5053561;28;20449;-72
2021/08/26 02:57:07;;;;;;;5.20;2.33;;;18.50;90.00;;;;;;5053469;28;20508;-72
2021/08/26 02:59:34;;;;;;;5.60;2.27;;;18.50;90.00;;;;;;5053120;28;21006;-72
2021/08/26 03:02:00;;;;;;;5.20;2.60;;;18.50;89.60;;;;;;5053253;28;20910;-72
2021/08/26 03:04:27;;;;;;;5.60;2.33;;;18.50;89.40;;;;;;5053486;28;20448;-72
2021/08/26 03:06:54;;;;;;;6.10;2.50;;;18.60;89.30;;;;;;5053148;28;20931;-72
2021/08/26 03:09:22;;;;;;;3.20;2.10;;;18.60;89.00;;;;;;5053580;28;20527;-72
2021/08/26 03:11:49;;;;;;;5.50;2.23;;;18.60;89.20;;;;;;5053398;28;20532;-72
2021/08/26 03:14:16;;;;;;;5.03;2.70;;;18.60;89.30;;;;;;5053385;28;20449;-72
2021/08/26 03:16:42;;;;;;;3.90;2.47;;;18.60;89.30;;;;;;5053282;28;20469;-72
2021/08/26 03:19:09;;;;;;;3.70;2.57;;;18.50;89.10;;;;;;5053256;28;20453;-72
2021/08/26 03:21:36;;;;;;;8.63;3.53;;;18.60;89.30;;;;;;5053345;28;20445;-72
2021/08/26 03:24:03;;;;;;;4.47;2.43;;;18.60;89.30;;;;;;5052999;28;20445;-72
2021/08/26 03:26:31;;;;;;;5.50;2.67;;;18.60;89.30;;;;;;5053255;28;20444;-72
2021/08/26 03:28:58;;;;;;;7.03;2.70;;;18.60;89.20;;;;;;5053149;28;20450;-72
2021/08/26 03:31:24;;;;;;;6.90;3.07;;;18.70;89.10;;;;;;5053236;28;20449;-72
2021/08/26 03:33:51;;;;;;;5.67;3.10;;;18.70;89.00;;;;;;5053200;28;20445;-72
2021/08/26 03:36:18;;;;;;;6.10;2.53;;;18.70;88.80;;;;;;5053159;28;20465;-72
2021/08/26 03:38:45;;;;;;;5.80;3.10;;;18.70;88.80;;;;;;5053191;28;20441;-72
2021/08/26 03:41:11;;;;;;;5.90;2.73;;;18.70;88.60;;;;;;5053080;28;20480;-72
2021/08/26 03:43:39;;;;;;;3.20;2.80;;;18.70;88.90;;;;;;5053103;28;20457;-72
2021/08/26 03:46:06;;;;;;;5.10;3.10;;;18.70;88.90;;;;;;5053092;28;20452;-72
2021/08/26 03:48:33;;;;;;;3.50;2.70;;;18.70;89.00;;;;;;5052788;28;20986;-72
2021/08/26 03:51:01;;;;;;;5.47;3.20;;;18.70;89.30;;;;;;5052951;28;20462;-72
2021/08/26 03:53:28;;;;;;;4.07;3.67;;;18.70;89.60;;;;;;5053009;28;20452;-72
2021/08/26 03:55:54;;;;;;;5.33;4.00;;;18.70;89.70;;;;;;5052906;28;20477;-72
2021/08/26 03:58:21;;;;;;;5.53;4.20;;;18.70;89.70;;;;;;5052981;28;20452;-72
2021/08/26 04:00:49;;;;;;;5.97;4.17;;;18.70;89.70;;;;;;5052449;28;20489;-72
2021/08/26 04:03:16;;;;;;;9.07;4.30;;;18.70;90.00;;;;;;5055332;28;20820;-72
2021/08/26 04:05:42;;;;;;;6.40;4.77;;;18.60;90.20;;;;;;5056702;28;20437;-72
2021/08/26 04:08:09;;;;;;;8.30;4.90;;;18.50;90.30;;;;;;5056692;28;20475;-72
2021/08/26 04:10:36;;;;;;;6.30;4.40;;;18.50;90.50;;;;;;5056538;28;20465;-72
2021/08/26 04:13:02;;;;;;;6.33;4.30;;;18.50;90.60;;;;;;5056641;28;20437;-72
2021/08/26 04:15:29;;;;;;;8.37;4.90;;;18.40;90.80;;;;;;5056694;28;20441;-72
2021/08/26 04:17:57;;;;;;;6.90;3.80;;;18.40;90.80;;;;;;5056463;28;20453;-72
2021/08/26 04:20:24;;;;;;;7.97;4.53;;;18.30;90.80;;;;;;5056336;28;20469;-72
2021/08/26 04:22:50;;;;;;;4.93;3.83;;;18.40;90.80;;;;;;5056350;28;20496;-72
2021/08/26 04:25:17;;;;;;;5.50;4.13;;;18.40;90.70;;;;;;5056364;28;20480;-72
2021/08/26 04:27:44;;;;;;;7.13;4.00;;;18.40;90.80;;;;;;5056189;28;20441;-73
2021/08/26 04:30:11;;;;;;;6.77;4.27;;;18.40;90.70;;;;;;5056142;28;20469;-72
2021/08/26 04:32:38;;;;;;;6.27;4.50;;;18.40;90.70;;;;;;5055867;28;20842;-72
2021/08/26 04:35:07;;;;;;;4.10;3.67;;;18.50;90.70;;;;;;5056068;28;20959;-73
2021/08/26 04:37:34;;;;;;;6.37;5.10;;;18.50;90.60;;;;;;5056083;28;20469;-72
2021/08/26 04:40:00;;;;;;;8.63;5.40;;;18.50;90.70;;;;;;5055990;28;20462;-72
2021/08/26 04:42:27;;;;;;;6.10;4.80;;;18.40;90.80;;;;;;5055995;28;20446;-73
2021/08/26 04:44:54;;;;;;;5.87;4.30;;;18.40;90.90;;;;;;5055610;28;20940;-73
2021/08/26 04:47:20;;;;;;;8.03;4.37;;;18.40;91.00;;;;;;5055886;28;20453;-73
2021/08/26 04:49:47;;;;;;;8.03;3.67;;;18.40;91.10;;;;;;5055801;28;20496;-73
2021/08/26 04:52:15;;;;;;;9.20;4.00;;;18.30;90.60;;;;;;5055885;28;20430;-72
2021/08/26 04:54:42;;;;;;;6.50;3.40;;;18.30;90.40;;;;;;5055790;28;20457;-72
2021/08/26 04:57:08;;;;;;;11.90;4.40;;;18.20;90.00;;;;;;5055625;28;20484;-72
2021/08/26 04:59:35;;;;;;;7.23;4.00;;;18.20;89.90;;;;;;5055388;28;20484;-72
2021/08/26 05:02:03;;;;;;;8.20;3.90;;;18.20;89.70;;;;;;5055516;28;20812;-72
2021/08/26 05:04:30;;;;;;;6.40;3.73;;;18.20;89.70;;;;;;5055353;28;20796;-72
2021/08/26 05:06:57;;;;;;;7.57;3.53;;;18.10;89.30;;;;;;5055596;28;20426;-72
2021/08/26 05:09:25;;;;;;;7.70;3.37;;;18.10;89.50;;;;;;5055549;28;20466;-72
2021/08/26 05:11:55;;;;;;;9.03;3.40;;;18.10;89.40;;;;;;5055550;28;20422;-72
2021/08/26 05:14:22;;;;;;;6.57;3.97;;;18.10;89.40;;;;;;5054964;28;20484;-72
2021/08/26 05:16:49;;;;;;;5.70;3.53;;;18.10;89.20;;;;;;5055362;28;20486;-72
2021/08/26 05:19:15;;;;;;;13.03;5.00;;;18.10;89.10;;;;;;5055511;28;21789;-72
2021/08/26 05:21:42;;;;;;;7.20;4.03;;;18.10;89.30;;;;;;5055302;28;20446;-72
2021/08/26 05:24:09;;;;;;;7.50;3.70;;;18.10;89.50;;;;;;5055242;28;20441;-72
2021/08/26 05:26:37;;;;;;;9.40;3.53;;;18.00;89.40;;;;;;5055189;28;20915;-72
2021/08/26 05:29:03;;;;;;;11.00;4.20;;;18.00;89.50;;;;;;5055092;28;20851;-72
2021/08/26 05:31:30;;;;;;;12.90;3.43;;;18.10;89.80;;;;;;5055096;28;20453;-73
2021/08/26 05:33:57;;;;;;;10.30;3.67;;;18.00;89.40;;;;;;5055053;28;20441;-72
2021/08/26 05:36:23;;;;;;;6.50;3.07;;;18.10;88.90;;;;;;5054930;28;20535;-72
2021/08/26 05:38:50;;;;;;;7.93;3.40;;;18.10;88.50;;;;;;5055112;28;20430;-73
2021/08/26 05:41:17;;;;;;;5.67;3.60;;;18.10;88.50;;;;;;5054868;28;20462;-73
2021/08/26 05:43:45;;;;;;;7.57;3.20;;;18.20;88.80;;;;;;5054906;28;20426;-73
2021/08/26 05:46:12;;;;;;;7.97;3.60;;;18.20;89.00;;;;;;5054432;28;20440;-73
2021/08/26 05:48:38;;;;;;;9.70;3.57;;;18.20;89.00;;;;;;5054790;28;20808;-73
2021/08/26 05:51:05;;;;;;;6.50;3.60;;;18.20;89.00;;;;;;5054661;28;20466;-72
2021/08/26 05:53:32;;;;;;;9.90;3.50;;;18.20;89.50;;;;;;5054891;28;20437;-72
2021/08/26 05:55:59;;;;;;;6.87;3.67;;;18.20;89.30;;;;;;5054536;28;20445;-72
2021/08/26 05:58:26;;;;;;;12.43;3.73;;;18.20;89.50;;;;;;5054298;28;20971;-73
2021/08/26 06:00:54;;;;;;;8.47;3.27;;;18.30;89.50;;;;;;5054228;28;20480;-73
2021/08/26 06:03:20;;;;;;;9.27;3.90;;;18.30;89.50;;;;;;5054539;28;20426;-73
2021/08/26 06:05:47;;;;;;;9.73;3.80;;;18.30;89.50;;;;;;5054673;28;20445;-73
2021/08/26 06:08:14;;;;;;;10.47;4.30;;;18.30;89.50;;;;;;5054281;28;20449;-73
2021/08/26 06:10:40;;;;;;;7.13;3.97;;;18.30;88.90;;;;;;5054847;28;20474;-73
2021/08/26 06:13:07;;;;;;;10.27;3.80;;;18.30;88.90;;;;;;5054558;28;20430;-72
2021/08/26 06:15:34;;;;;;;12.90;3.83;;;18.30;88.90;;;;;;5053932;28;20456;-72
2021/08/26 06:18:02;;;;;;;11.30;4.50;;;18.30;88.90;;;;;;5054387;28;20473;-72
2021/08/26 06:20:28;;;;;;;6.80;3.83;;;18.30;88.70;;;;;;5053808;28;21051;-72
2021/08/26 06:22:55;;;;;;;9.10;4.20;;;18.30;88.70;;;;;;5054109;28;20450;-73
2021/08/26 06:25:22;;;;;;;10.83;4.00;;;18.40;88.60;;;;;;5053271;28;20841;-73
2021/08/26 06:27:48;;;;;;;11.10;4.23;;;18.40;88.90;;;;;;5054316;28;20452;-73
2021/08/26 06:30:15;;;;;;;14.83;4.90;;;18.50;88.30;;;;;;5053899;28;20519;-73
2021/08/26 06:32:42;;;;;;;11.87;4.50;;;18.50;87.70;;;;;;5053943;28;20853;-73
2021/08/26 06:35:12;;;;;;;10.27;4.20;;;18.50;87.70;;;;;;5053929;28;20458;-73
2021/08/26 06:37:38;;;;;;;11.10;4.80;;;18.60;87.90;;;;;;5053479;28;20895;-73
2021/08/26 06:40:06;;;;;;;9.30;3.97;;;18.60;87.50;;;;;;5053778;28;20465;-72
2021/08/26 06:42:33;;;;;;;11.23;4.33;;;18.70;87.60;;;;;;5053490;28;20448;-72
2021/08/26 06:45:00;;;;;;;12.00;4.70;;;18.80;87.80;;;;;;5053806;28;20445;-72
2021/08/26 06:47:26;;;;;;;10.80;4.50;;;18.80;86.40;;;;;;5054544;28;20449;-72
2021/08/26 06:49:53;;;;;;;7.27;3.53;;;18.80;86.20;;;;;;5053289;28;20994;-72
2021/08/26 06:52:21;;;;;;;14.20;4.90;;;18.90;85.80;;;;;;5053649;28;20476;-72
2021/08/26 06:54:48;;;;;;;9.30;3.97;;;18.90;85.60;;;;;;5053336;28;20931;-72
2021/08/26 06:57:15;;;;;;;9.57;4.30;;;18.90;85.60;;;;;;5053531;28;20477;-72
2021/08/26 06:59:41;;;;;;;10.90;4.63;;;18.80;84.60;;;;;;5053368;28;20485;-72
2021/08/26 07:02:08;;;;;;;10.23;4.70;;;18.80;84.70;;;;;;5053536;28;20445;-72
2021/08/26 07:04:35;;;;;;;11.93;4.97;;;18.80;84.80;;;;;;5053495;28;20450;-72
2021/08/26 07:07:02;;;;;;;10.10;4.70;;;18.90;84.40;;;;;;5053447;28;20452;-72
2021/08/26 07:09:30;;;;;;;12.50;4.20;;;19.00;85.40;;;;;;5053359;28;20468;-72
2021/08/26 07:11:57;;;;;;;14.60;5.13;;;19.00;83.20;;;;;;5053391;28;20457;-73
2021/08/26 07:14:23;;;;;;;12.00;4.93;;;19.00;82.40;;;;;;5053371;28;20453;-73
2021/08/26 07:16:50;;;;;;;9.60;4.40;;;19.00;82.70;;;;;;5052925;28;21003;-72
2021/08/26 07:19:17;;;;;;;16.10;4.37;;;18.90;82.80;;;;;;5053301;28;20469;-72
2021/08/26 07:21:44;;;;;;;10.50;4.40;;;19.00;83.30;;;;;;5053528;28;20441;-72
2021/08/26 07:24:10;;;;;;;9.60;3.37;;;19.00;83.00;;;;;;5053515;28;20456;-72
2021/08/26 07:26:38;;;;;;;15.23;5.07;;;19.00;83.50;;;;;;5053301;28;20446;-72
2021/08/26 07:29:05;;;;;;;12.03;3.70;;;19.10;83.40;;;;;;5053250;28;20446;-72
2021/08/26 07:31:32;;;;;;;8.07;3.73;;;19.20;83.50;;;;;;5053230;28;20442;-72
2021/08/26 07:34:00;;;;;;;9.37;3.27;;;19.20;81.80;;;;;;5053203;28;20441;-72
2021/08/26 07:36:27;;;;;;;15.00;3.67;;;19.20;79.40;;;;;;5054283;28;20491;-72
2021/08/26 07:38:53;;;;;;;12.20;4.07;;;19.30;80.30;;;;;;5057226;28;20860;-72
2021/08/26 07:41:20;;;;;;;7.10;3.03;;;19.40;79.40;;;;;;5057115;28;20461;-72
2021/08/26 07:43:48;;;;;;;5.87;3.20;;;19.30;77.10;;;;;;5057122;28;20519;-73
2021/08/26 07:46:15;;;;;;;12.93;3.37;;;19.30;77.50;;;;;;5057893;28;20445;-72
2021/08/26 07:48:41;;;;;;;9.80;3.50;;;19.30;78.20;;;;;;5056996;28;20440;-72
2021/08/26 07:51:08;;;;;;;7.03;3.93;;;19.30;79.20;;;;;;5056971;28;20472;-72
2021/08/26 07:53:36;;;;;;;6.33;3.80;;;19.30;79.50;;;;;;5056954;28;20453;-72
2021/08/26 07:56:03;;;;;;;7.00;2.93;;;19.40;79.10;;;;;;5057114;28;20548;-72
2021/08/26 07:58:31;;;;;;;10.30;3.30;;;19.30;78.90;;;;;;5056804;28;20845;-72
2021/08/26 08:01:00;;;;;;;11.50;3.77;;;19.30;78.20;;;;;;5056408;28;20477;-72
2021/08/26 08:03:27;;;;;;;10.10;2.73;;;19.30;78.00;;;;;;5056823;28;20441;-72
2021/08/26 08:05:53;;;;;;;8.90;2.70;;;19.40;78.40;;;;;;5056724;28;20442;-72
2021/08/26 08:08:20;;;;;;;10.40;3.30;;;19.50;78.30;;;;;;5056756;28;20449;-73
2021/08/26 08:10:47;;;;;;;8.90;3.33;;;19.60;78.80;;;;;;5056705;28;20461;-73
2021/08/26 08:13:13;;;;;;;14.37;3.80;;;19.80;78.90;;;;;;5056396;28;20923;-73
2021/08/26 08:15:40;;;;;;;9.30;4.10;;;20.00;78.40;;;;;;5056577;28;20445;-73
2021/08/26 08:18:08;;;;;;;8.27;3.60;;;20.10;75.20;;;;;;5056260;28;21019;-73
2021/08/26 08:20:35;;;;;;;13.47;4.10;;;20.10;74.90;;;;;;5056079;28;20519;-73
2021/08/26 08:23:02;;;;;;;7.50;3.60;;;20.20;75.00;;;;;;5056098;28;20940;-73
2021/08/26 08:25:28;;;;;;;8.70;3.53;;;20.10;75.20;;;;;;5056656;28;20450;-73
2021/08/26 08:27:55;;;;;;;9.70;3.53;;;20.10;74.90;;;;;;5056318;28;20448;-73
2021/08/26 08:30:26;;;;;;;13.90;3.83;;;20.30;73.60;;;;;;5056300;28;20458;-72
2021/08/26 08:32:53;;;;;;;4.83;2.60;;;20.40;73.50;;;;;;5056856;28;20520;-73
2021/08/26 08:35:22;;;;;;;7.97;3.40;;;20.60;73.60;;;;;;5056236;28;20469;-73
2021/08/26 08:37:48;;;;;;;9.80;3.30;;;20.90;73.40;;;;;;5056031;28;20474;-73
2021/08/26 08:40:15;;;;;;;9.33;3.67;;;21.00;71.30;;;;;;5056042;28;20519;-73
2021/08/26 08:42:43;;;;;;;10.23;2.50;;;21.00;70.60;;;;;;5056060;28;20441;-73
2021/08/26 08:45:14;;;;;;;6.77;2.90;;;20.90;69.70;;;;;;5056045;28;20445;-73
2021/08/26 08:47:43;;;;;;;7.30;2.13;;;20.60;68.80;;;;;;5055182;28;20434;-73
2021/08/26 08:50:11;;;;;;;7.70;3.43;;;20.40;69.70;;;;;;5055854;28;20465;-73
2021/08/26 08:52:40;;;;;;;7.00;2.20;;;20.40;70.90;;;;;;5055935;28;20444;-73
2021/08/26 08:55:08;;;;;;;5.93;2.30;;;20.40;71.40;;;;;;5055811;28;20445;-73
2021/08/26 08:57:37;;;;;;;8.67;3.13;;;20.40;72.00;;;;;;5055699;28;20477;-73
2021/08/26 09:00:07;;;;;;;7.80;2.20;;;20.40;71.60;;;;;;5055550;28;20481;-73
2021/08/26 09:02:33;;;;;;;6.90;2.90;;;20.40;70.50;;;;;;5055401;28;20928;-73
2021/08/26 09:05:01;;;;;;;4.50;1.83;;;20.50;70.80;;;;;;5055653;28;20449;-73
2021/08/26 09:07:30;;;;;;;11.90;2.20;;;20.60;68.80;;;;;;5055603;28;20808;-73
2021/08/26 09:09:58;;;;;;;8.23;2.37;;;20.90;69.60;;;;;;5055476;28;20473;-73
2021/08/26 09:12:46;;;;;;;8.57;2.33;;;21.10;68.30;;;;;;5055184;28;20458;-73
2021/08/26 09:15:15;;;;;;;4.60;2.90;;;21.20;68.60;;;;;;5055477;28;20432;-73
2021/08/26 09:17:44;;;;;;;7.57;3.03;;;21.30;69.70;;;;;;5055333;28;20488;-73
2021/08/26 09:20:14;;;;;;;5.37;2.77;;;21.50;69.50;;;;;;5055278;28;20475;-73
2021/08/26 09:22:41;;;;;;;6.60;3.00;;;21.80;68.60;;;;;;5055287;28;20446;-73
2021/08/26 09:25:12;;;;;;;9.60;2.90;;;21.90;67.70;;;;;;5055253;28;20448;-73
2021/08/26 09:27:42;;;;;;;6.40;3.43;;;22.00;67.50;;;;;;5055217;28;20517;-73
2021/08/26 09:30:11;;;;;;;4.50;2.80;;;22.10;66.50;;;;;;5055126;28;20465;-73
2021/08/26 09:32:40;;;;;;;8.47;4.00;;;21.90;66.70;;;;;;5054809;28;21001;-73
2021/08/26 09:35:15;;;;;;;5.23;2.93;;;21.70;68.00;;;;;;5055059;28;20450;-73
2021/08/26 09:37:49;;;;;;;4.40;3.17;;;21.50;68.20;;;;;;5055018;28;20461;-73
2021/08/26 09:40:19;;;;;;;8.07;3.23;;;21.60;69.70;;;;;;5054959;28;20470;-73
2021/08/26 09:42:56;;;;;;;7.37;2.90;;;21.70;69.90;;;;;;5054978;28;20430;-73
2021/08/26 09:45:25;;;;;;;7.50;3.40;;;21.60;70.80;;;;;;5054925;28;20894;-73
2021/08/26 09:47:59;;;;;;;5.77;3.17;;;21.70;69.30;;;;;;5055153;28;20477;-73
2021/08/26 09:50:37;;;;;;;6.47;2.70;;;21.80;69.80;;;;;;5054733;28;20653;-73
2021/08/26 09:53:05;;;;;;;6.30;3.23;;;22.10;68.60;;;;;;5054407;28;20939;-73
2021/08/26 09:56:04;;;;;;;5.43;2.50;;;22.30;66.30;;;;;;5054712;28;20441;-73
2021/08/26 09:58:33;;;;;;;5.80;3.00;;;22.50;64.60;;;;;;5054471;28;21004;-73
2021/08/26 10:01:13;;;;;;;10.63;3.17;;;22.70;63.00;;;;;;5054040;28;20486;-73
2021/08/26 10:03:40;;;;;;;10.57;3.83;;;22.60;63.50;;;;;;5054271;28;20426;-73
2021/08/26 10:06:07;;;;;;;8.57;3.40;;;22.50;64.20;;;;;;5054486;28;20429;-73
2021/08/26 10:08:34;;;;;;;8.17;3.70;;;22.40;63.70;;;;;;5054429;28;20438;-73
2021/08/26 10:11:04;;;;;;;6.57;2.10;;;22.10;63.90;;;;;;5054332;28;20472;-73
2021/08/26 10:13:31;;;;;;;7.90;2.83;;;21.70;64.10;;;;;;5054280;28;20446;-73
2021/08/26 10:15:58;;;;;;;6.27;3.00;;;21.50;65.00;;;;;;5054277;28;20449;-73
2021/08/26 10:18:27;;;;;;;5.87;2.37;;;21.30;66.30;;;;;;5054200;28;20469;-73
2021/08/26 10:20:55;;;;;;;5.30;2.40;;;21.40;66.90;;;;;;5054122;28;20837;-73
2021/08/26 10:23:22;;;;;;;6.30;2.33;;;21.50;66.40;;;;;;5054138;28;20449;-73
2021/08/26 10:25:52;;;;;;;9.63;3.13;;;21.70;66.40;;;;;;5054039;28;20445;-73
2021/08/26 10:28:22;;;;;;;7.80;2.90;;;21.90;65.10;;;;;;5054056;28;20430;-73
2021/08/26 10:30:49;;;;;;;5.73;2.37;;;22.20;65.10;;;;;;5054937;28;20469;-73
2021/08/26 10:33:17;;;;;;;5.73;2.30;;;22.40;63.90;;;;;;5053992;28;20457;-74
2021/08/26 10:36:07;;;;;;;9.87;2.10;;;22.90;64.40;;;;;;5053623;28;20445;-74
2021/08/26 10:38:36;;;;;;;4.87;2.17;;;23.00;59.90;;;;;;5053897;28;20475;-76
2021/08/26 10:41:27;;;;;;;3.47;2.07;;;22.70;60.40;;;;;;5053617;28;20987;-74
2021/08/26 10:43:58;;;;;;;6.43;1.83;;;22.40;61.50;;;;;;5053579;28;20917;-74
2021/08/26 10:46:47;;;;;;;6.13;2.10;;;22.10;63.40;;;;;;5053524;28;20900;-74
2021/08/26 10:49:14;;;;;;;4.37;2.07;;;22.00;65.90;;;;;;5053698;28;20819;-73
2021/08/26 10:51:43;;;;;;;3.87;1.80;;;21.90;66.30;;;;;;5053455;28;20942;-74
2021/08/26 10:54:30;;;;;;;6.30;3.10;;;21.90;66.90;;;;;;5053279;28;20472;-74
2021/08/26 10:56:58;;;;;;;4.30;1.90;;;22.00;66.70;;;;;;5053534;28;20441;-74
2021/08/26 10:59:31;;;;;;;11.77;2.97;;;21.90;65.20;;;;;;5053036;28;20865;-74
2021/08/26 11:01:58;;;;;;;8.23;2.90;;;21.90;66.80;;;;;;5053280;28;20567;-74
2021/08/26 11:04:30;;;;;;;3.73;2.00;;;21.90;66.40;;;;;;5053401;28;20450;-74
2021/08/26 11:06:58;;;;;;;5.20;2.50;;;21.80;65.90;;;;;;5053553;28;20461;-74
2021/08/26 11:09:36;;;;;;;2.73;1.80;;;21.70;65.80;;;;;;5053470;28;20465;-73
2021/08/26 11:12:26;;;;;;;5.03;2.20;;;21.60;65.70;;;;;;5052726;28;20520;-73
2021/08/26 11:14:57;;;;;;;5.03;1.80;;;21.50;66.10;;;;;;5053994;28;20514;-73
2021/08/26 11:17:32;;;;;;;5.43;2.27;;;21.40;66.50;;;;;;5053430;28;20426;-74
2021/08/26 11:20:00;;;;;;;4.43;1.90;;;21.40;67.20;;;;;;5053278;28;20820;-74
2021/08/26 11:22:27;;;;;;;4.23;1.77;;;21.50;66.60;;;;;;5053324;28;20499;-74
2021/08/26 11:24:57;;;;;;;5.60;2.50;;;21.60;66.40;;;;;;5053285;28;20441;-74
2021/08/26 11:27:30;;;;;;;6.30;2.37;;;21.80;66.40;;;;;;5053364;28;20432;-74
2021/08/26 11:29:58;;;;;;;3.93;2.33;;;22.10;65.30;;;;;;5053220;28;20840;-73
2021/08/26 11:32:26;;;;;;;2.90;1.57;;;22.40;63.70;;;;;;5053256;28;20445;-74
2021/08/26 11:34:55;;;;;;;5.17;2.27;;;22.70;63.60;;;;;;5053487;28;20437;-74
2021/08/26 11:37:25;;;;;;;6.13;1.67;;;22.80;61.50;;;;;;5053298;28;20892;-74
2021/08/26 11:39:55;;;;;;;4.00;1.47;;;22.80;60.60;;;;;;5053073;28;20485;-74
2021/08/26 11:42:28;;;;;;;2.17;1.80;;;23.10;60.20;;;;;;5052868;28;20442;-74
2021/08/26 11:45:16;;;;;;;5.37;2.33;;;23.20;59.50;;;;;;5053173;28;20441;-74
2021/08/26 11:47:44;;;;;;;3.60;2.00;;;23.20;59.20;;;;;;5053150;28;20520;-74
2021/08/26 11:50:15;;;;;;;4.63;2.27;;;23.40;59.40;;;;;;5052689;28;20468;-74
2021/08/26 11:52:43;;;;;;;5.10;2.13;;;23.80;58.80;;;;;;5053878;28;20444;-74
2021/08/26 11:55:10;;;;;;;3.87;2.00;;;24.20;58.30;;;;;;5052709;28;20450;-73
2021/08/26 11:57:37;;;;;;;4.23;2.10;;;24.90;57.70;;;;;;5053047;28;20495;-76
2021/08/26 12:00:11;;;;;;;6.13;2.10;;;25.40;54.50;;;;;;5052860;28;20477;-74
2021/08/26 12:02:39;;;;;;;3.60;1.47;;;26.00;53.60;;;;;;5052940;28;20445;-74
2021/08/26 12:05:12;;;;;;;1.87;1.57;;;26.10;51.10;;;;;;5052971;28;20499;-74
2021/08/26 12:07:40;;;;;;;1.77;1.00;;;26.00;49.10;;;;;;5052992;28;20430;-75
2021/08/26 12:10:11;;;;;;;2.90;1.37;;;25.70;50.30;;;;;;5052824;28;20469;-74
2021/08/26 12:12:39;;;;;;;2.80;1.20;;;25.70;50.40;;;;;;5052936;28;20430;-74
2021/08/26 12:15:16;;;;;;;6.00;1.50;;;25.70;51.90;;;;;;5052764;28;20940;-74
2021/08/26 12:17:45;;;;;;;2.97;1.13;;;25.80;50.00;;;;;;5052911;28;20795;-74
2021/08/26 12:20:12;;;;;;;4.27;1.43;;;25.70;49.30;;;;;;5052746;28;20443;-74
2021/08/26 12:22:43;;;;;;;2.60;1.33;;;25.60;49.40;;;;;;5052759;28;20438;-74
2021/08/26 12:25:18;;;;;;;1.90;1.20;;;25.70;50.10;;;;;;5056355;28;20773;-74
2021/08/26 12:27:50;;;;;;;4.20;1.50;;;25.60;50.60;;;;;;5056684;28;20436;-74
2021/08/26 12:30:30;;;;;;;4.93;2.07;;;25.70;51.00;;;;;;5056311;28;20519;-74
2021/08/26 12:33:17;;;;;;;2.43;1.20;;;26.00;51.10;;;;;;5056323;28;20437;-74
2021/08/26 12:35:49;;;;;;;7.37;1.60;;;26.40;48.50;;;;;;5056214;28;20432;-74
2021/08/26 12:38:18;;;;;;;4.33;1.70;;;26.80;48.30;;;;;;5056143;28;20488;-74
2021/08/26 12:40:51;;;;;;;2.80;1.40;;;26.90;47.70;;;;;;5056335;28;20465;-74
2021/08/26 12:43:19;;;;;;;3.37;1.27;;;27.20;47.40;;;;;;5056129;28;20441;-74
2021/08/26 12:45:46;;;;;;;2.60;1.50;;;27.50;47.00;;;;;;5055932;28;20437;-74
2021/08/26 12:48:28;;;;;;;3.43;2.07;;;27.40;47.00;;;;;;5055723;28;20966;-74
2021/08/26 12:51:19;;;;;;;3.93;1.63;;;27.10;46.30;;;;;;5056985;28;20514;-74
2021/08/26 12:53:49;;;;;;;3.83;1.73;;;26.70;47.20;;;;;;5055912;28;20517;-74
2021/08/26 12:56:19;;;;;;;4.57;1.30;;;26.10;48.70;;;;;;5055849;28;20425;-74